Time;durP1;ratioP1;P1;durP2;ratioP2;P2;SDS_P1;SDS_P2;PMS_P1;PMS_P2;Temp;Humidity;BMP_temperature;BMP_pressure;BME280_temperature;BME280_humidity;BME280_pressure;Samples;Min_cycle;Max_cycle;Signal;HPM_P1;HPM_P2
2023/05/10 00:01:15;;;;;;;6.88;6.15;;;;;;;11.97;100.00;73969.00;5071354;28;20538;-58
2023/05/10 00:03:41;;;;;;;8.35;7.28;;;;;;;11.93;100.00;74310.28;5070662;28;20028;-58
2023/05/10 00:06:06;;;;;;;12.55;7.72;;;;;;;11.89;100.00;74652.78;5071940;28;20029;-58
2023/05/10 00:08:32;;;;;;;10.38;8.38;;;;;;;11.85;100.00;74648.00;5070230;28;20044;-56
2023/05/10 00:10:57;;;;;;;16.08;8.77;;;;;;;11.85;100.00;74994.66;5071771;28;20024;-58
2023/05/10 00:13:22;;;;;;;10.40;8.85;;;;;;;11.82;100.00;74991.03;5070845;28;20031;-58
2023/05/10 00:15:48;;;;;;;14.43;10.85;;;;;;;11.81;100.00;74643.19;5066120;28;20071;-59
2023/05/10 00:18:13;;;;;;;12.95;10.18;;;;;;;11.78;100.00;74986.22;5052345;28;20037;-58
2023/05/10 00:20:38;;;;;;;13.90;10.27;;;;;;;11.77;100.00;74638.41;5067259;28;20044;-59
2023/05/10 00:23:04;;;;;;;21.13;11.48;;;;;;;11.77;100.00;74638.41;5063877;28;20032;-58
2023/05/10 00:25:30;;;;;;;11.05;9.32;;;;;;;11.74;100.00;74636.00;5066263;28;20044;-58
2023/05/10 00:27:56;;;;;;;13.80;9.98;;;;;;;11.72;100.00;74287.03;5071140;28;20021;-59
2023/05/10 00:30:22;;;;;;;14.10;10.38;;;;;;;11.72;100.00;74287.03;5069893;28;20449;-58
2023/05/10 00:32:49;;;;;;;15.68;10.52;;;;;;;11.70;100.00;73938.13;5070955;28;20024;-58
2023/05/10 00:35:15;;;;;;;15.18;10.77;;;;;;;11.70;100.00;73591.66;5069531;28;20467;-58
2023/05/10 00:37:40;;;;;;;14.55;13.02;;;;;;;11.71;100.00;73246.38;5071264;28;20131;-58
2023/05/10 00:40:06;;;;;;;13.38;11.90;;;;;;;11.70;100.00;73245.19;5069888;28;20051;-59
2023/05/10 00:42:32;;;;;;;14.10;11.60;;;;;;;11.71;100.00;72899.94;5068494;28;20032;-59
2023/05/10 00:44:57;;;;;;;13.68;11.80;;;;;;;11.67;100.00;72548.84;5061574;28;20051;-59
2023/05/10 00:47:23;;;;;;;13.38;10.85;;;;;;;11.66;100.00;72200.75;5071142;28;20395;-58
2023/05/10 00:49:49;;;;;;;14.15;10.38;;;;;;;11.67;100.00;71856.16;5069398;28;20534;-58
2023/05/10 00:52:15;;;;;;;17.55;12.90;;;;;;;11.65;100.00;71853.88;5051676;28;20048;-59
2023/05/10 00:54:40;;;;;;;14.40;10.85;;;;;;;11.66;100.00;71508.72;5059095;28;20106;-59
2023/05/10 00:57:05;;;;;;;13.48;11.65;;;;;;;11.59;100.00;71155.06;5070724;28;20476;-58
2023/05/10 00:59:31;;;;;;;14.20;10.25;;;;;;;11.63;100.00;70812.84;5069273;28;20051;-58
2023/05/10 01:01:57;;;;;;;13.40;10.00;;;;;;;11.62;100.00;70811.72;5070950;28;20036;-59
2023/05/10 01:04:25;;;;;;;18.92;11.00;;;;;;;11.61;100.00;70464.41;5068909;28;20037;-59
2023/05/10 01:06:52;;;;;;;16.33;11.57;;;;;;;11.58;100.00;70461.59;5071315;28;20024;-58
2023/05/10 01:09:18;;;;;;;15.82;10.50;;;;;;;11.54;100.00;70457.06;5069612;28;20032;-59
2023/05/10 01:11:44;;;;;;;15.80;11.55;;;;;;;11.59;100.00;70116.59;5056343;28;20126;-58
2023/05/10 01:14:09;;;;;;;13.25;10.20;;;;;;;11.58;100.00;69768.78;5049639;28;20040;-59
2023/05/10 01:16:40;;;;;;;16.15;12.48;;;;;;;11.55;100.00;69765.44;5050607;28;20028;-58
2023/05/10 01:19:18;;;;;;;15.57;11.25;;;;;;;11.53;100.00;69763.22;5053598;28;20070;-58
2023/05/10 01:22:08;;;;;;;14.40;11.52;;;;;;;11.53;100.00;69763.22;5055476;28;20032;-58
2023/05/10 01:25:21;;;;;;;17.42;10.93;;;;;;;11.52;100.00;69762.09;5057763;28;20048;-58
2023/05/10 01:28:18;;;;;;;17.48;11.55;;;;;;;11.52;100.00;69416.06;5068498;28;20037;-58
2023/05/10 01:31:05;;;;;;;18.98;10.75;;;;;;;11.53;100.00;69071.19;5068982;28;20044;-58
2023/05/10 01:34:12;;;;;;;14.25;11.20;;;;;;;11.52;100.00;68724.09;5070149;28;20032;-59
2023/05/10 01:36:58;;;;;;;16.38;12.60;;;;;;;11.53;100.00;68725.19;5069254;28;20040;-58
2023/05/10 01:39:31;;;;;;;16.50;11.80;;;;;;;11.51;100.00;68377.06;5068902;28;20063;-58
2023/05/10 01:42:09;;;;;;;17.20;12.05;;;;;;;11.51;100.00;68377.06;5070167;28;20024;-58
2023/05/10 01:45:11;;;;;;;17.70;13.27;;;;;;;11.53;100.00;68033.34;5073293;28;20044;-58
2023/05/10 01:47:40;;;;;;;15.70;11.50;;;;;;;11.51;100.00;68031.72;5052504;28;20415;-58
2023/05/10 01:50:15;;;;;;;17.33;12.13;;;;;;;11.52;100.00;67686.38;5052927;28;20041;-58
2023/05/10 01:52:43;;;;;;;21.38;14.10;;;;;;;11.52;100.00;67686.38;5054372;28;20502;-58
2023/05/10 01:55:13;;;;;;;23.27;14.75;;;;;;;11.53;100.00;67341.59;5068471;28;20097;-58
2023/05/10 01:57:42;;;;;;;20.35;12.63;;;;;;;11.55;100.00;67343.78;5074106;28;20028;-58
2023/05/10 02:00:09;;;;;;;20.80;14.75;;;;;;;11.56;100.00;66999.53;5073002;28;20056;-58
2023/05/10 02:02:44;;;;;;;21.30;13.00;;;;;;;11.53;100.00;66996.34;5074005;28;20074;-58
2023/05/10 02:05:12;;;;;;;26.17;14.20;;;;;;;11.53;100.00;66995.78;5072804;28;20041;-58
2023/05/10 02:07:38;;;;;;;21.05;14.80;;;;;;;11.56;100.00;66653.72;5054158;28;20032;-58
2023/05/10 02:10:07;;;;;;;23.15;15.43;;;;;;;11.59;100.00;66310.59;5052939;28;20037;-58
2023/05/10 02:12:35;;;;;;;21.17;13.80;;;;;;;11.56;100.00;66307.41;5073204;28;20451;-58
2023/05/10 02:15:04;;;;;;;22.60;13.95;;;;;;;11.54;100.00;66305.28;5072453;28;20457;-58
2023/05/10 02:17:31;;;;;;;22.75;16.13;;;;;;;11.58;100.00;65964.31;5073533;28;20039;-58
2023/05/10 02:19:59;;;;;;;26.08;15.05;;;;;;;11.58;100.00;66309.53;5072591;28;20044;-58
2023/05/10 02:22:26;;;;;;;26.45;14.77;;;;;;;11.55;100.00;65960.59;5055105;28;20029;-58
2023/05/10 02:24:54;;;;;;;26.25;16.02;;;;;;;11.61;100.00;65966.41;5052840;28;20037;-58
2023/05/10 02:27:21;;;;;;;23.75;15.73;;;;;;;11.58;100.00;66310.06;5071356;28;20475;-58
2023/05/10 02:29:48;;;;;;;32.85;17.77;;;;;;;11.58;100.00;66655.31;5072227;28;20045;-58
2023/05/10 02:32:14;;;;;;;28.02;17.85;;;;;;;11.59;100.00;66656.38;5057425;28;20025;-58
2023/05/10 02:34:40;;;;;;;26.08;16.15;;;;;;;11.60;100.00;66657.44;5051756;28;20054;-58
2023/05/10 02:37:06;;;;;;;27.42;15.68;;;;;;;11.58;100.00;67001.69;5053753;28;20070;-58
2023/05/10 02:39:32;;;;;;;22.38;16.52;;;;;;;11.56;100.00;67345.38;5052358;28;20037;-58
2023/05/10 02:41:59;;;;;;;23.83;15.15;;;;;;;11.59;100.00;67348.63;5069435;28;20039;-58
2023/05/10 02:44:27;;;;;;;31.55;18.27;;;;;;;11.62;100.00;67351.31;5072042;28;20524;-58
2023/05/10 02:46:55;;;;;;;32.28;17.83;;;;;;;11.61;100.00;67696.13;5073903;28;20111;-58
2023/05/10 02:49:21;;;;;;;37.80;20.10;;;;;;;11.56;100.00;68036.63;5065897;28;20495;-58
2023/05/10 02:51:55;;;;;;;37.35;20.38;;;;;;;11.62;100.00;68043.16;5057217;28;20505;-58
2023/05/10 02:54:27;;;;;;;38.63;22.27;;;;;;;11.66;100.00;68047.50;5058720;28;20653;-58
2023/05/10 02:56:57;;;;;;;37.28;21.20;;;;;;;11.67;100.00;68394.59;5073172;28;20589;-58
2023/05/10 02:59:23;;;;;;;53.72;22.23;;;;;;;11.66;100.00;68739.50;5071184;28;20043;-58
2023/05/10 03:01:48;;;;;;;43.72;24.25;;;;;;;11.68;100.00;68741.72;5072589;28;20410;-58
2023/05/10 03:04:13;;;;;;;45.60;24.73;;;;;;;11.67;100.00;69086.66;5071502;28;20707;-58
2023/05/10 03:06:39;;;;;;;50.95;25.27;;;;;;;11.65;100.00;69430.53;5072952;28;20024;-58
2023/05/10 03:09:05;;;;;;;43.72;23.80;;;;;;;11.70;100.00;69435.53;5051686;28;20037;-58
2023/05/10 03:11:55;;;;;;;49.08;26.45;;;;;;;11.71;100.00;69782.78;5065211;28;20174;-59
2023/05/10 03:14:52;;;;;;;49.78;26.88;;;;;;;11.71;100.00;69783.34;5067626;28;20036;-58
2023/05/10 03:17:25;;;;;;;46.28;27.30;;;;;;;11.72;100.00;70130.63;5053054;28;20025;-58
2023/05/10 03:19:54;;;;;;;56.53;27.48;;;;;;;11.72;100.00;70476.84;5060453;28;20121;-58
2023/05/10 03:22:25;;;;;;;51.47;27.25;;;;;;;11.74;100.00;70479.06;5072659;28;20039;-58
2023/05/10 03:24:53;;;;;;;60.25;27.75;;;;;;;11.76;100.00;70480.78;5071526;28;20036;-58
2023/05/10 03:27:19;;;;;;;55.00;25.95;;;;;;;11.78;100.00;70482.47;5072938;28;20048;-58
2023/05/10 03:29:46;;;;;;;59.38;28.40;;;;;;;11.77;100.00;70481.91;5068792;28;20048;-58
2023/05/10 03:32:11;;;;;;;56.53;29.42;;;;;;;11.78;100.00;70828.75;5034927;28;20025;-58
2023/05/10 03:34:42;;;;;;;59.70;28.60;;;;;;;11.76;100.00;71173.31;5039657;28;20558;-59
2023/05/10 03:37:08;;;;;;;69.35;30.60;;;;;;;11.80;100.00;71177.31;5052610;28;20376;-59
2023/05/10 03:39:33;;;;;;;67.68;29.75;;;;;;;11.81;100.00;71178.44;5051018;28;20045;-59
2023/05/10 03:41:59;;;;;;;66.13;33.45;;;;;;;11.82;100.00;71525.94;5068589;28;20398;-58
2023/05/10 03:44:24;;;;;;;84.93;35.75;;;;;;;11.84;100.00;71528.22;5070997;28;20037;-58
2023/05/10 03:46:49;;;;;;;72.25;30.58;;;;;;;11.86;100.00;71530.53;5072377;28;20360;-58
2023/05/10 03:49:15;;;;;;;78.80;33.25;;;;;;;11.86;100.00;71876.94;5068875;28;20043;-58
2023/05/10 03:51:40;;;;;;;82.35;35.13;;;;;;;11.86;100.00;71877.50;5071811;28;20032;-58
2023/05/10 03:54:05;;;;;;;77.80;34.53;;;;;;;11.88;100.00;71879.81;5070774;28;20029;-58
2023/05/10 03:56:31;;;;;;;94.93;37.28;;;;;;;11.86;100.00;71877.50;5056636;28;20025;-59
2023/05/10 03:58:56;;;;;;;91.00;36.60;;;;;;;11.89;100.00;71880.38;5037299;28;20696;-58
2023/05/10 04:01:21;;;;;;;85.47;37.72;;;;;;;11.90;100.00;71881.53;5051879;28;20041;-58
2023/05/10 04:03:47;;;;;;;82.78;34.45;;;;;;;11.93;100.00;71538.56;5050148;28;20059;-58
2023/05/10 04:06:12;;;;;;;97.82;40.85;;;;;;;11.93;100.00;71538.56;5051557;28;20025;-58
2023/05/10 04:08:38;;;;;;;101.60;41.88;;;;;;;11.91;100.00;71536.25;5050551;28;20036;-58
2023/05/10 04:11:11;;;;;;;95.63;39.72;;;;;;;11.92;100.00;71191.00;5051891;28;20348;-58
2023/05/10 04:13:36;;;;;;;96.55;40.92;;;;;;;11.93;100.00;71192.16;5050696;28;20403;-58
2023/05/10 04:16:02;;;;;;;104.80;45.33;;;;;;;11.93;100.00;71191.56;5051781;28;20029;-58
2023/05/10 04:18:27;;;;;;;111.53;44.92;;;;;;;11.93;100.00;70845.75;5051054;28;20025;-57
2023/05/10 04:20:53;;;;;;;110.35;41.83;;;;;;;11.95;100.00;70501.66;5050237;28;20048;-57
2023/05/10 04:23:18;;;;;;;111.53;44.50;;;;;;;11.96;100.00;70156.47;5051619;28;20025;-57
2023/05/10 04:25:43;;;;;;;117.90;44.42;;;;;;;11.99;100.00;69466.69;5049541;28;20550;-57
2023/05/10 04:28:09;;;;;;;131.35;50.33;;;;;;;12.01;100.00;69123.19;5051351;28;20028;-57
2023/05/10 04:30:34;;;;;;;125.03;51.30;;;;;;;12.01;100.00;68776.94;5049908;28;20041;-56
2023/05/10 04:33:01;;;;;;;136.55;49.92;;;;;;;12.00;100.00;68429.63;5051475;28;20024;-57
2023/05/10 04:35:26;;;;;;;119.70;51.70;;;;;;;11.99;100.00;68081.84;5049558;28;20453;-57
2023/05/10 04:37:52;;;;;;;133.40;53.38;;;;;;;12.00;100.00;67737.31;5051539;28;20040;-57
2023/05/10 04:40:17;;;;;;;132.13;50.15;;;;;;;12.01;100.00;67392.28;5049538;28;20049;-57
2023/05/10 04:42:43;;;;;;;131.32;52.25;;;;;;;12.03;100.00;67048.31;5052564;28;20059;-57
2023/05/10 04:45:09;;;;;;;137.98;50.17;;;;;;;12.07;100.00;66359.91;5069618;28;20045;-57
2023/05/10 04:47:34;;;;;;;130.80;50.50;;;;;;;12.10;100.00;66016.50;5070708;28;20479;-57
2023/05/10 04:50:00;;;;;;;128.95;49.28;;;;;;;12.13;100.00;65673.63;5069739;28;20082;-57
2023/05/10 04:52:26;;;;;;;136.98;50.10;;;;;;;12.14;100.00;65329.19;5071136;28;20055;-57
2023/05/10 04:54:51;;;;;;;142.88;54.75;;;;;;;12.17;100.00;64985.81;5069315;28;20094;-57
2023/05/10 04:57:16;;;;;;;130.63;50.42;;;;;;;12.17;100.00;64985.81;5071091;28;20025;-57
2023/05/10 04:59:42;;;;;;;141.73;53.17;;;;;;;12.17;100.00;64985.81;5069156;28;20114;-57
2023/05/10 05:02:07;;;;;;;140.40;53.65;;;;;;;12.20;100.00;64988.91;5070880;28;20489;-57
2023/05/10 05:04:33;;;;;;;151.65;53.20;;;;;;;12.27;100.00;64649.63;5069209;28;20037;-57
2023/05/10 05:06:58;;;;;;;160.98;55.30;;;;;;;12.32;100.00;64308.75;5070816;28;20036;-57
2023/05/10 05:09:23;;;;;;;168.98;60.20;;;;;;;12.34;100.00;63965.31;5068739;28;20047;-57
2023/05/10 05:11:49;;;;;;;158.57;62.40;;;;;;;12.36;100.00;63621.38;5070836;28;20020;-57
2023/05/10 05:14:14;;;;;;;147.80;55.97;;;;;;;12.41;100.00;63279.44;5069483;28;20029;-57
2023/05/10 05:16:39;;;;;;;138.80;57.47;;;;;;;12.45;100.00;63283.47;5070031;28;20021;-57
2023/05/10 05:19:05;;;;;;;148.50;60.58;;;;;;;12.35;100.00;63274.38;5068747;28;20040;-57
2023/05/10 05:21:31;;;;;;;152.15;59.55;;;;;;;12.36;100.00;63275.41;5070494;28;20070;-57
2023/05/10 05:23:57;;;;;;;146.30;61.80;;;;;;;12.42;100.00;62935.00;5069071;28;20037;-57
2023/05/10 05:26:22;;;;;;;150.88;59.22;;;;;;;12.42;100.00;62934.47;5070719;28;20028;-57
2023/05/10 05:28:48;;;;;;;147.82;59.65;;;;;;;12.43;100.00;62935.47;5069260;28;20731;-57
2023/05/10 05:31:14;;;;;;;150.57;61.63;;;;;;;12.41;100.00;63279.44;5070507;28;20021;-57
2023/05/10 05:33:39;;;;;;;148.40;61.90;;;;;;;12.46;100.00;62939.00;5069281;28;20043;-57
2023/05/10 05:36:05;;;;;;;139.15;61.53;;;;;;;12.41;100.00;63279.44;5070602;28;20020;-57
2023/05/10 05:38:30;;;;;;;135.55;55.65;;;;;;;12.41;100.00;63971.44;5070160;28;20037;-57
2023/05/10 05:40:56;;;;;;;130.90;58.42;;;;;;;12.45;100.00;63975.50;5069294;28;20086;-57
2023/05/10 05:43:21;;;;;;;138.48;59.38;;;;;;;12.42;100.00;64665.09;5070523;28;20035;-57
2023/05/10 05:45:46;;;;;;;128.35;53.70;;;;;;;12.44;100.00;65358.91;5068966;28;20040;-57
2023/05/10 05:48:12;;;;;;;119.20;51.67;;;;;;;12.45;100.00;65706.66;5070483;28;20454;-57
2023/05/10 05:50:37;;;;;;;132.75;55.97;;;;;;;12.43;100.00;66742.75;5068833;28;20040;-57
2023/05/10 05:53:02;;;;;;;117.25;53.45;;;;;;;12.36;100.00;68121.56;5070212;28;20035;-57
2023/05/10 05:55:29;;;;;;;116.90;52.53;;;;;;;12.36;100.00;68814.38;5068918;28;20037;-58
2023/05/10 05:57:54;;;;;;;106.28;48.97;;;;;;;12.40;100.00;69510.63;5070599;28;20044;-57
2023/05/10 06:00:21;;;;;;;119.45;52.40;;;;;;;12.41;100.00;70551.38;5068503;28;20083;-57
2023/05/10 06:02:46;;;;;;;109.18;54.88;;;;;;;12.40;100.00;71937.47;5070712;28;20368;-57
2023/05/10 06:05:11;;;;;;;110.65;49.95;;;;;;;12.34;100.00;72971.31;5069039;28;20067;-57
2023/05/10 06:07:37;;;;;;;112.00;51.03;;;;;;;12.38;100.00;74016.53;5069888;28;20053;-57
2023/05/10 06:10:02;;;;;;;125.30;54.50;;;;;;;12.42;100.00;74714.56;5068646;28;20085;-57
2023/05/10 06:12:28;;;;;;;110.03;53.90;;;;;;;12.24;100.00;75039.84;5070382;28;20052;-57
2023/05/10 06:14:53;;;;;;;115.38;51.97;;;;;;;12.46;100.00;75412.81;5068908;28;20483;-57
2023/05/10 06:17:18;;;;;;;128.07;55.78;;;;;;;12.44;100.00;75410.97;5069834;28;20062;-57
2023/05/10 06:19:44;;;;;;;119.90;53.38;;;;;;;12.38;100.00;75404.31;5068492;28;20032;-57
2023/05/10 06:22:09;;;;;;;126.28;53.20;;;;;;;12.40;100.00;75753.16;5070231;28;20021;-57
2023/05/10 06:24:35;;;;;;;108.43;51.85;;;;;;;12.35;100.00;75747.69;5068116;28;20072;-57
2023/05/10 06:27:00;;;;;;;121.18;56.38;;;;;;;12.39;100.00;76099.00;5070664;28;20020;-59
2023/05/10 06:29:26;;;;;;;123.10;54.65;;;;;;;12.30;100.00;76782.72;5070532;28;20086;-58
2023/05/10 06:31:51;;;;;;;129.68;56.20;;;;;;;12.30;100.00;77476.94;5073695;28;20471;-57
2023/05/10 06:34:16;;;;;;;132.18;60.70;;;;;;;12.38;100.00;77139.75;5073931;28;20078;-57
2023/05/10 06:36:42;;;;;;;135.38;57.53;;;;;;;12.48;100.00;76803.69;5072071;28;20037;-58
2023/05/10 06:39:07;;;;;;;125.25;58.65;;;;;;;12.56;100.00;76119.16;5073764;28;20074;-57
2023/05/10 06:41:32;;;;;;;131.43;57.75;;;;;;;12.68;100.00;75439.44;5072003;28;20126;-58
2023/05/10 06:43:58;;;;;;;120.65;52.00;;;;;;;12.89;100.00;74421.31;5061952;28;20048;-58
2023/05/10 06:46:23;;;;;;;105.50;56.65;;;;;;;12.96;100.00;73735.25;5051911;28;20041;-58
2023/05/10 06:48:48;;;;;;;112.07;53.10;;;;;;;12.99;100.00;73738.78;5053821;28;20036;-58
2023/05/10 06:51:14;;;;;;;109.75;54.70;;;;;;;13.11;100.00;74099.69;5052259;28;20048;-57
2023/05/10 06:53:39;;;;;;;124.47;61.53;;;;;;;13.18;100.00;74802.72;5053041;28;20463;-58
2023/05/10 06:56:04;;;;;;;107.97;56.20;;;;;;;13.20;100.00;75500.00;5052112;28;20044;-58
2023/05/10 06:58:30;;;;;;;108.88;55.00;;;;;;;13.31;100.00;76903.06;5053147;28;20059;-57
2023/05/10 07:01:01;;;;;;;104.82;51.25;;;;;;;13.25;100.00;81765.22;5051481;28;20064;-58
2023/05/10 07:03:27;;;;;;;85.90;46.03;;;;;;;13.36;100.00;85609.94;5053069;28;20024;-58
2023/05/10 07:05:52;;;;;;;99.55;52.22;;;;;;;13.64;100.00;88089.47;5051889;28;20048;-58
2023/05/10 07:08:18;;;;;;;83.85;44.28;;;;;;;13.90;100.00;88822.97;5051386;28;20041;-58
2023/05/10 07:10:43;;;;;;;87.18;49.40;;;;;;;13.68;100.00;96474.13;5052090;28;20496;-58
2023/05/10 07:13:09;;;;;;;78.50;44.67;;;;;;;13.79;100.00;106994.06;5053366;28;20028;-58
2023/05/10 07:15:34;;;;;;;83.38;47.83;;;;;;;13.80;100.00;117172.81;5051226;28;20385;-58
2023/05/10 07:18:00;;;;;;;81.57;46.45;;;;;;;13.68;100.00;130523.22;5060654;28;20028;-58
2023/05/10 07:20:25;;;;;;;75.75;44.35;;;;;;;13.50;100.00;143190.88;5070999;28;20040;-57
2023/05/10 07:22:51;;;;;;;79.95;42.53;;;;;;;13.41;100.00;150597.91;5071072;28;20024;-58
2023/05/10 07:25:16;;;;;;;79.50;42.13;;;;;;;13.36;100.00;153772.81;5051682;28;20033;-57
2023/05/10 07:27:41;;;;;;;71.57;43.15;;;;;;;13.21;100.00;159325.28;5052639;28;20471;-58
2023/05/10 07:30:07;;;;;;;71.95;41.50;;;;;;;13.17;100.00;161549.88;5050995;28;20041;-58
2023/05/10 07:32:32;;;;;;;70.78;42.75;;;;;;;13.18;100.00;160791.69;5052158;28;20025;-58
2023/05/10 07:34:58;;;;;;;66.88;40.95;;;;;;;13.14;100.00;160212.97;5051328;28;20044;-58
2023/05/10 07:37:23;;;;;;;73.82;44.00;;;;;;;13.10;100.00;157451.75;5052372;28;20017;-58
2023/05/10 07:39:49;;;;;;;77.40;43.33;;;;;;;13.14;100.00;152303.31;5061149;28;20402;-58
2023/05/10 07:42:14;;;;;;;73.80;39.65;;;;;;;13.09;100.00;149813.47;5072223;28;20027;-58
2023/05/10 07:44:39;;;;;;;68.63;38.70;;;;;;;13.09;100.00;149813.47;5070061;28;20036;-57
2023/05/10 07:47:05;;;;;;;73.90;41.53;;;;;;;13.08;100.00;149812.25;5072593;28;20017;-58
2023/05/10 07:49:30;;;;;;;80.53;39.40;;;;;;;13.10;100.00;148401.00;5070556;28;20055;-57
2023/05/10 07:51:55;;;;;;;74.80;42.47;;;;;;;13.04;100.00;149801.16;5072049;28;20087;-58
2023/05/10 07:54:21;;;;;;;72.22;39.53;;;;;;;13.05;100.00;150157.44;5070598;28;20028;-58
2023/05/10 07:56:47;;;;;;;73.43;42.83;;;;;;;13.00;100.00;152270.72;5072534;28;20046;-58
2023/05/10 07:59:16;;;;;;;73.85;40.78;;;;;;;13.05;100.00;152634.75;5070514;28;20102;-58
2023/05/10 08:01:42;;;;;;;66.32;37.15;;;;;;;13.07;100.00;154056.13;5071853;28;20040;-58
2023/05/10 08:04:08;;;;;;;63.83;37.17;;;;;;;13.07;100.00;156537.13;5070135;28;20037;-58
2023/05/10 08:06:34;;;;;;;76.38;37.17;;;;;;;13.22;100.00;154448.34;5071953;28;20020;-58
2023/05/10 08:08:59;;;;;;;66.88;37.47;;;;;;;13.21;100.00;153737.41;5070601;28;20037;-58
2023/05/10 08:11:25;;;;;;;73.10;37.35;;;;;;;13.30;100.00;153405.88;5071994;28;20017;-59
2023/05/10 08:13:51;;;;;;;60.97;36.03;;;;;;;13.35;100.00;152707.59;5070157;28;20024;-58
2023/05/10 08:16:17;;;;;;;58.25;33.47;;;;;;;13.31;100.00;158431.50;5072051;28;20037;-58
2023/05/10 08:18:45;;;;;;;66.53;34.58;;;;;;;13.21;100.00;164017.63;5069701;28;20028;-58
2023/05/10 08:21:11;;;;;;;53.20;31.57;;;;;;;13.30;100.00;164042.00;5071662;28;20020;-58
2023/05/10 08:23:36;;;;;;;56.72;35.05;;;;;;;13.42;100.00;164073.13;5070043;28;20403;-58
2023/05/10 08:26:02;;;;;;;64.50;36.97;;;;;;;13.53;100.00;164102.88;5072160;28;20052;-58
2023/05/10 08:28:27;;;;;;;67.70;35.50;;;;;;;13.59;100.00;164119.09;5070880;28;20020;-58
2023/05/10 08:30:53;;;;;;;61.25;34.28;;;;;;;13.71;100.00;164148.84;5070330;28;20048;-57
2023/05/10 08:33:18;;;;;;;61.78;33.85;;;;;;;13.80;100.00;164173.22;5071608;28;20035;-58
2023/05/10 08:35:43;;;;;;;55.10;34.40;;;;;;;13.87;100.00;164190.75;5069718;28;20123;-58
2023/05/10 08:38:09;;;;;;;55.53;33.55;;;;;;;13.90;100.00;164200.25;5071492;28;20020;-58
2023/05/10 08:40:36;;;;;;;54.55;33.80;;;;;;;13.85;100.00;164185.41;5069909;28;20398;-58
2023/05/10 08:43:06;;;;;;;59.45;32.90;;;;;;;13.96;100.00;164216.47;5067621;28;20021;-58
2023/05/10 08:45:36;;;;;;;47.83;34.42;;;;;;;13.85;100.00;164186.72;5049987;28;20044;-58
2023/05/10 08:48:02;;;;;;;55.70;33.83;;;;;;;13.91;100.00;164202.94;5051411;28;20024;-58
2023/05/10 08:50:27;;;;;;;54.45;34.03;;;;;;;13.89;100.00;164197.53;5049554;28;20048;-58
2023/05/10 08:52:57;;;;;;;63.60;37.58;;;;;;;13.87;100.00;164192.16;5051221;28;20025;-58
2023/05/10 08:55:24;;;;;;;68.93;36.95;;;;;;;13.89;100.00;164197.53;5049589;28;20041;-58
2023/05/10 08:57:49;;;;;;;51.60;31.30;;;;;;;13.84;100.00;164182.69;5051487;28;20384;-58
2023/05/10 09:00:16;;;;;;;55.95;33.17;;;;;;;13.73;100.00;164154.28;5049318;28;20052;-58
2023/05/10 09:02:43;;;;;;;59.08;35.42;;;;;;;13.60;100.00;164121.78;5050787;28;20052;-57
2023/05/10 09:05:09;;;;;;;60.97;35.53;;;;;;;13.52;100.00;164100.16;5049857;28;20047;-58
2023/05/10 09:07:35;;;;;;;54.28;33.30;;;;;;;13.43;100.00;164077.19;5050810;28;20061;-57
2023/05/10 09:10:00;;;;;;;59.58;37.25;;;;;;;13.38;100.00;164062.25;5056587;28;20056;-58
2023/05/10 09:12:26;;;;;;;61.30;37.70;;;;;;;13.37;100.00;164059.53;5070689;28;20020;-57
2023/05/10 09:14:54;;;;;;;65.00;36.75;;;;;;;13.36;100.00;164056.88;5068937;28;20040;-58
2023/05/10 09:17:20;;;;;;;64.00;37.38;;;;;;;13.39;100.00;164065.00;5067628;28;20021;-57
2023/05/10 09:19:45;;;;;;;85.75;45.20;;;;;;;13.44;100.00;164079.91;5049354;28;20487;-58
2023/05/10 09:22:10;;;;;;;66.47;40.13;;;;;;;13.58;100.00;164116.41;5050186;28;20379;-57
2023/05/10 09:24:42;;;;;;;75.43;43.30;;;;;;;13.63;100.00;164129.94;5052032;28;20043;-57
2023/05/10 09:27:07;;;;;;;70.32;38.13;;;;;;;13.86;100.00;164188.06;5070298;28;20108;-58
2023/05/10 09:29:42;;;;;;;70.88;40.60;;;;;;;14.11;100.00;164254.38;5056453;28;20123;-58
2023/05/10 09:32:08;;;;;;;67.55;39.70;;;;;;;14.32;100.00;164308.47;5070788;28;20451;-58
2023/05/10 09:34:35;;;;;;;64.20;38.17;;;;;;;14.50;100.00;164357.16;5069240;28;20044;-59
2023/05/10 09:37:02;;;;;;;59.80;34.03;;;;;;;14.80;100.00;164435.69;5070647;28;20075;-58
2023/05/10 09:39:37;;;;;;;49.17;33.05;;;;;;;14.71;100.00;164411.31;5069169;28;20029;-58
2023/05/10 09:42:05;;;;;;;52.08;32.53;;;;;;;14.78;100.00;164428.94;5070760;28;20020;-58
2023/05/10 09:44:32;;;;;;;49.17;31.38;;;;;;;14.95;100.00;164473.56;5068663;28;20047;-58
2023/05/10 09:46:58;;;;;;;56.83;28.70;;;;;;;15.01;100.00;164489.81;5070914;28;20031;-59
2023/05/10 09:49:23;;;;;;;47.35;28.77;;;;;;;15.08;100.00;164508.75;5068967;28;20037;-58
2023/05/10 09:52:02;;;;;;;41.63;25.95;;;;;;;15.05;100.00;164500.66;5070229;28;20035;-58
2023/05/10 09:54:27;;;;;;;43.15;27.80;;;;;;;14.93;100.00;164469.53;5069093;28;20033;-58
2023/05/10 09:56:53;;;;;;;40.97;25.60;;;;;;;14.84;100.00;164446.53;5070584;28;20078;-58
2023/05/10 09:59:18;;;;;;;49.55;26.58;;;;;;;14.81;100.00;164438.41;5068721;28;20046;-57
2023/05/10 10:01:50;;;;;;;39.30;26.38;;;;;;;14.80;100.00;164435.69;5070094;28;20403;-57
2023/05/10 10:04:16;;;;;;;45.20;25.83;;;;;;;14.75;100.00;164422.16;5059015;28;20040;-57
2023/05/10 10:06:41;;;;;;;47.65;30.02;;;;;;;14.72;100.00;164414.03;5073957;28;20028;-58
2023/05/10 10:09:07;;;;;;;41.88;23.83;;;;;;;14.68;100.00;164403.22;5072958;28;20056;-58
2023/05/10 10:11:37;;;;;;;39.65;25.35;;;;;;;14.57;100.00;164374.78;5074015;28;20024;-57
2023/05/10 10:14:02;;;;;;;31.35;19.58;;;;;;;14.57;100.00;164376.09;5072376;28;20044;-58
2023/05/10 10:16:29;;;;;;;32.13;23.02;;;;;;;14.70;100.00;164410.00;5072138;28;20029;-58
2023/05/10 10:18:55;;;;;;;42.65;23.65;;;;;;;14.96;100.00;164476.28;5072374;28;20035;-57
2023/05/10 10:21:21;;;;;;;37.05;21.83;;;;;;;15.37;100.00;164584.59;5073687;28;20024;-57
2023/05/10 10:23:46;;;;;;;34.20;24.25;;;;;;;15.83;100.00;164706.47;5072496;28;20115;-58
2023/05/10 10:26:12;;;;;;;34.45;18.88;;;;;;;16.22;100.00;164806.69;5073061;28;20016;-58
2023/05/10 10:28:48;;;;;;;26.48;20.40;;;;;;;-146.58;100.00;69501.63;5072193;28;20034;-58
2023/05/10 10:31:26;;;;;;;31.73;21.33;;;;;;;-146.58;100.00;69501.63;5073961;28;20535;-58
2023/05/10 10:34:03;;;;;;;33.77;22.13;;;;;;;16.22;100.00;164806.69;5072407;28;20035;-57
2023/05/10 10:36:29;;;;;;;29.10;21.33;;;;;;;17.63;100.00;165177.97;5073422;28;20271;-58
2023/05/10 10:38:59;;;;;;;26.55;19.90;;;;;;;17.82;100.00;165226.78;5072802;28;20656;-58
2023/05/10 10:41:48;;;;;;;31.40;20.98;;;;;;;17.89;100.00;165247.09;5073929;28;20021;-58
2023/05/10 10:44:25;;;;;;;31.05;20.83;;;;;;;17.80;100.00;165221.34;5072267;28;20040;-58
2023/05/10 10:47:23;;;;;;;36.75;21.85;;;;;;;17.29;100.00;165088.53;5073739;28;20040;-57
2023/05/10 10:49:51;;;;;;;32.13;22.00;;;;;;;17.01;100.00;165014.00;5072077;28;20117;-57
2023/05/10 10:52:37;;;;;;;34.33;22.00;;;;;;;16.62;100.00;164913.69;5061580;28;20472;-58
2023/05/10 10:55:06;;;;;;;30.08;20.13;;;;;;;16.41;100.00;164856.78;5052286;28;20049;-57
2023/05/10 10:57:41;;;;;;;24.50;17.23;;;;;;;16.02;100.00;164756.56;5053023;28;20128;-57
2023/05/10 11:00:27;;;;;;;24.42;18.13;;;;;;;16.10;100.00;164776.91;5051911;28;20057;-58
2023/05/10 11:03:20;;;;;;;27.40;20.15;;;;;;;16.16;100.00;164793.16;5053710;28;20103;-58
2023/05/10 11:05:48;;;;;;;28.98;18.65;;;;;;;16.26;100.00;164817.53;5050358;28;20073;-57
2023/05/10 11:08:14;;;;;;;22.52;16.42;;;;;;;16.57;100.00;164898.81;5053532;28;20021;-57